Time;durP1;ratioP1;P1;durP2;ratioP2;P2;SDS_P1;SDS_P2;PMS_P1;PMS_P2;Temp;Humidity;BMP_temperature;BMP_pressure;BME280_temperature;BME280_humidity;BME280_pressure;Samples;Min_cycle;Max_cycle;Signal;HPM_P1;HPM_P2
2021/03/01 00:01:53;;;;;;;24.88;17.55;;;;;;;;;;5084792;28;20390;-72
2021/03/01 00:04:19;;;;;;;30.10;18.83;;;;;;;;;;5085881;28;20728;-73
2021/03/01 00:06:45;;;;;;;27.08;18.27;;;;;;;;;;5082272;28;20383;-72
2021/03/01 00:09:11;;;;;;;29.08;18.67;;;;;;;;;;5088041;28;20382;-73
2021/03/01 00:11:37;;;;;;;28.83;19.03;;;;;;;;;;5083306;28;20391;-72
2021/03/01 00:14:03;;;;;;;27.42;18.98;;;;;;;;;;5073696;28;20455;-73
2021/03/01 00:16:29;;;;;;;28.88;18.30;;;;;;;;;;5067487;28;20467;-71
2021/03/01 00:18:55;;;;;;;28.48;19.35;;;;;;;;;;5067993;28;20375;-72
2021/03/01 00:21:21;;;;;;;26.50;18.95;;;;;;;;;;5068436;28;20378;-73
2021/03/01 00:23:49;;;;;;;27.98;19.05;;;;;;;;;;5075436;28;20523;-72
2021/03/01 00:26:15;;;;;;;27.95;18.65;;;;;;;;;;5067399;28;20890;-72
2021/03/01 00:28:42;;;;;;;26.27;18.90;;;;;;;;;;5083721;28;20840;-73
2021/03/01 00:31:08;;;;;;;27.27;18.92;;;;;;;;;;5076723;28;20712;-73
2021/03/01 00:33:34;;;;;;;27.73;19.40;;;;;;;;;;5078183;28;20395;-72
2021/03/01 00:36:00;;;;;;;26.70;19.13;;;;;;;;;;5067811;28;20391;-72
2021/03/01 00:38:27;;;;;;;26.70;18.48;;;;;;;;;;5068402;28;20805;-71
2021/03/01 00:40:53;;;;;;;27.63;20.02;;;;;;;;;;5073146;28;20378;-73
2021/03/01 00:43:19;;;;;;;29.77;19.90;;;;;;;;;;5079253;28;20427;-71
2021/03/01 00:45:45;;;;;;;29.23;19.97;;;;;;;;;;5068058;28;20364;-73
2021/03/01 00:48:11;;;;;;;30.63;20.50;;;;;;;;;;5066984;28;20429;-72
2021/03/01 00:50:37;;;;;;;30.63;20.92;;;;;;;;;;5067608;28;20364;-73
2021/03/01 00:53:03;;;;;;;31.33;20.90;;;;;;;;;;5071196;28;20506;-72
2021/03/01 00:55:29;;;;;;;31.33;22.75;;;;;;;;;;5085983;28;20453;-73
2021/03/01 00:57:55;;;;;;;31.77;22.40;;;;;;;;;;5086578;28;20400;-72
2021/03/01 01:00:21;;;;;;;31.77;21.50;;;;;;;;;;5091506;28;20373;-72
2021/03/01 01:02:47;;;;;;;31.42;22.10;;;;;;;;;;5086056;28;20496;-72
2021/03/01 01:05:13;;;;;;;31.83;22.08;;;;;;;;;;5070250;28;20414;-73
2021/03/01 01:07:40;;;;;;;29.42;21.60;;;;;;;;;;5076324;28;20412;-71
2021/03/01 01:10:07;;;;;;;29.30;21.50;;;;;;;;;;5091377;28;20868;-71
2021/03/01 01:12:36;;;;;;;30.92;22.15;;;;;;;;;;5077668;28;20460;-72
2021/03/01 01:15:04;;;;;;;30.35;21.77;;;;;;;;;;5080899;28;20475;-73
2021/03/01 01:17:30;;;;;;;33.33;23.63;;;;;;;;;;5073645;28;20942;-72
2021/03/01 01:19:56;;;;;;;32.47;22.67;;;;;;;;;;5091287;28;20394;-73
2021/03/01 01:22:22;;;;;;;33.15;22.63;;;;;;;;;;5089652;28;20388;-72
2021/03/01 01:24:48;;;;;;;31.77;22.38;;;;;;;;;;5070921;28;20427;-72
2021/03/01 01:27:14;;;;;;;33.70;22.35;;;;;;;;;;5070917;28;20392;-73
2021/03/01 01:29:40;;;;;;;30.38;21.40;;;;;;;;;;5090215;28;20398;-72
2021/03/01 01:32:06;;;;;;;31.42;22.27;;;;;;;;;;5088816;28;20476;-72
2021/03/01 01:34:32;;;;;;;31.38;22.10;;;;;;;;;;5073996;28;20396;-73
2021/03/01 01:36:58;;;;;;;28.53;20.90;;;;;;;;;;5070583;28;20451;-72
2021/03/01 01:39:24;;;;;;;29.33;20.98;;;;;;;;;;5086360;28;20476;-72
2021/03/01 01:41:50;;;;;;;31.60;20.77;;;;;;;;;;5085189;28;20423;-73
2021/03/01 01:44:17;;;;;;;31.47;21.30;;;;;;;;;;5069952;28;20905;-74
2021/03/01 01:46:44;;;;;;;31.70;21.58;;;;;;;;;;5070693;28;20434;-72
2021/03/01 01:49:11;;;;;;;31.92;20.70;;;;;;;;;;5080510;28;20378;-73
2021/03/01 01:51:37;;;;;;;28.37;19.83;;;;;;;;;;5090695;28;20384;-74
2021/03/01 01:54:03;;;;;;;29.17;20.20;;;;;;;;;;5078517;28;20441;-72
2021/03/01 01:56:29;;;;;;;29.13;20.67;;;;;;;;;;5070080;28;21041;-72
2021/03/01 01:58:55;;;;;;;28.65;20.40;;;;;;;;;;5077677;28;20465;-74
2021/03/01 02:01:21;;;;;;;28.05;20.45;;;;;;;;;;5090036;28;20468;-72
2021/03/01 02:04:06;;;;;;;27.58;19.38;;;;;;;;;;5075985;28;20864;-72
2021/03/01 02:06:32;;;;;;;28.35;20.30;;;;;;;;;;5078503;28;20375;-74
2021/03/01 02:09:15;;;;;;;30.25;21.63;;;;;;;;;;5086327;28;20390;-72
2021/03/01 02:11:53;;;;;;;30.27;20.90;;;;;;;;;;5087218;28;20378;-72
2021/03/01 02:14:27;;;;;;;28.73;20.88;;;;;;;;;;5080005;28;20412;-71
2021/03/01 02:16:53;;;;;;;28.35;20.52;;;;;;;;;;5090050;28;20378;-72
2021/03/01 02:19:20;;;;;;;28.95;21.10;;;;;;;;;;5088713;28;20937;-72
2021/03/01 02:21:46;;;;;;;30.10;22.02;;;;;;;;;;5085425;28;20396;-72
2021/03/01 02:24:25;;;;;;;29.13;21.30;;;;;;;;;;5086025;28;20414;-73
2021/03/01 02:26:52;;;;;;;39.70;20.88;;;;;;;;;;5072318;28;20399;-72
2021/03/01 02:29:19;;;;;;;30.83;22.52;;;;;;;;;;5075473;28;20394;-72
2021/03/01 02:31:46;;;;;;;28.30;20.45;;;;;;;;;;5089483;28;20469;-72
2021/03/01 02:34:16;;;;;;;29.73;21.33;;;;;;;;;;5079748;28;20874;-72
2021/03/01 02:36:48;;;;;;;28.67;20.52;;;;;;;;;;5068407;28;20449;-73
2021/03/01 02:39:15;;;;;;;31.90;20.80;;;;;;;;;;5069447;28;20395;-73
2021/03/01 02:41:42;;;;;;;30.83;21.92;;;;;;;;;;5085855;28;20392;-72
2021/03/01 02:44:08;;;;;;;29.75;20.20;;;;;;;;;;5074297;28;20953;-71
2021/03/01 02:46:36;;;;;;;30.20;21.20;;;;;;;;;;5078395;28;20386;-72
2021/03/01 02:49:02;;;;;;;30.98;21.42;;;;;;;;;;5084630;28;20395;-73
2021/03/01 02:51:29;;;;;;;29.73;20.73;;;;;;;;;;5068072;28;20399;-71
2021/03/01 02:53:56;;;;;;;29.90;21.57;;;;;;;;;;5078569;28;20551;-73
2021/03/01 02:56:23;;;;;;;30.57;20.20;;;;;;;;;;5087380;28;20442;-73
2021/03/01 02:58:49;;;;;;;30.10;20.48;;;;;;;;;;5068408;28;20359;-73
2021/03/01 03:01:16;;;;;;;31.10;22.02;;;;;;;;;;5082580;28;20378;-72
2021/03/01 03:03:44;;;;;;;28.95;20.75;;;;;;;;;;5067881;28;20477;-74
2021/03/01 03:06:11;;;;;;;32.78;23.25;;;;;;;;;;5080184;28;20381;-72
2021/03/01 03:08:38;;;;;;;32.00;22.70;;;;;;;;;;5087914;28;20369;-72
2021/03/01 03:11:04;;;;;;;30.63;21.63;;;;;;;;;;5068741;28;20837;-72
2021/03/01 03:13:33;;;;;;;32.35;21.83;;;;;;;;;;5077000;28;20392;-74
2021/03/01 03:16:00;;;;;;;33.70;23.00;;;;;;;;;;5084635;28;20379;-72
2021/03/01 03:18:28;;;;;;;33.75;23.42;;;;;;;;;;5088896;28;20459;-72
2021/03/01 03:20:54;;;;;;;31.38;22.17;;;;;;;;;;5086242;28;20390;-72
2021/03/01 03:23:20;;;;;;;32.13;22.10;;;;;;;;;;5085494;28;20430;-72
2021/03/01 03:25:46;;;;;;;35.17;25.10;;;;;;;;;;5086184;28;20482;-71
2021/03/01 03:28:12;;;;;;;33.80;23.25;;;;;;;;;;5088915;28;20358;-71
2021/03/01 03:30:38;;;;;;;32.58;23.23;;;;;;;;;;5076080;28;20387;-73
2021/03/01 03:33:04;;;;;;;31.73;22.87;;;;;;;;;;5069520;28;20449;-71
2021/03/01 03:35:31;;;;;;;35.22;23.00;;;;;;;;;;5067658;28;20871;-72
2021/03/01 03:38:08;;;;;;;35.58;22.92;;;;;;;;;;5067311;28;20437;-72
2021/03/01 03:40:35;;;;;;;33.15;23.50;;;;;;;;;;5077824;28;20789;-72
2021/03/01 03:43:02;;;;;;;32.10;23.30;;;;;;;;;;5070508;28;20874;-72
2021/03/01 03:45:28;;;;;;;36.55;23.45;;;;;;;;;;5075253;28;20417;-72
2021/03/01 03:47:56;;;;;;;36.50;25.05;;;;;;;;;;5081836;28;20367;-72
2021/03/01 03:50:23;;;;;;;40.33;27.45;;;;;;;;;;5077228;28;20386;-71
2021/03/01 03:52:52;;;;;;;40.43;25.87;;;;;;;;;;5070378;28;20420;-72
2021/03/01 03:55:19;;;;;;;33.92;23.95;;;;;;;;;;5073159;28;20405;-73
2021/03/01 03:57:54;;;;;;;37.83;25.95;;;;;;;;;;5088398;28;20369;-71
2021/03/01 04:00:22;;;;;;;35.47;25.67;;;;;;;;;;5086060;28;25094;-73
2021/03/01 04:02:48;;;;;;;36.60;25.67;;;;;;;;;;5070676;28;20705;-73
2021/03/01 04:05:15;;;;;;;33.42;25.70;;;;;;;;;;5076087;28;20385;-73
2021/03/01 04:07:44;;;;;;;39.45;27.35;;;;;;;;;;5088258;28;20363;-73
2021/03/01 04:10:11;;;;;;;40.30;26.97;;;;;;;;;;5084172;28;20413;-72
2021/03/01 04:12:38;;;;;;;38.50;26.77;;;;;;;;;;5085099;28;20400;-72
2021/03/01 04:15:05;;;;;;;33.83;24.75;;;;;;;;;;5087291;28;20350;-72
2021/03/01 04:17:34;;;;;;;32.70;23.15;;;;;;;;;;5087686;28;20435;-72
2021/03/01 04:20:00;;;;;;;29.77;22.17;;;;;;;;;;5086482;28;20399;-72
2021/03/01 04:22:27;;;;;;;29.63;21.08;;;;;;;;;;5077332;28;20390;-73
2021/03/01 04:24:53;;;;;;;28.90;21.15;;;;;;;;;;5088226;28;20451;-72
2021/03/01 04:27:20;;;;;;;30.02;20.30;;;;;;;;;;5086924;28;20514;-73
2021/03/01 04:29:46;;;;;;;26.63;19.90;;;;;;;;;;5087960;28;20370;-72
2021/03/01 04:32:12;;;;;;;25.58;19.67;;;;;;;;;;5079836;28;20783;-72
2021/03/01 04:34:38;;;;;;;26.00;19.42;;;;;;;;;;5091916;28;20762;-71
2021/03/01 04:37:04;;;;;;;36.22;21.95;;;;;;;;;;5091013;28;20386;-72
2021/03/01 04:39:30;;;;;;;30.95;21.52;;;;;;;;;;5089583;28;20703;-72
2021/03/01 04:41:56;;;;;;;33.45;21.55;;;;;;;;;;5076339;28;20399;-71
2021/03/01 04:44:22;;;;;;;30.98;23.10;;;;;;;;;;5071130;28;20422;-73
2021/03/01 04:46:57;;;;;;;25.85;20.23;;;;;;;;;;5071437;28;20395;-71
2021/03/01 04:49:24;;;;;;;28.75;21.60;;;;;;;;;;5071359;28;20419;-72
2021/03/01 04:51:50;;;;;;;32.17;22.33;;;;;;;;;;5084632;28;21036;-71
2021/03/01 04:54:17;;;;;;;27.70;21.05;;;;;;;;;;5091801;28;21020;-74
2021/03/01 04:56:43;;;;;;;29.05;22.13;;;;;;;;;;5084258;28;20742;-73
2021/03/01 04:59:10;;;;;;;27.75;21.70;;;;;;;;;;5073546;28;20371;-72
2021/03/01 05:01:37;;;;;;;27.58;21.88;;;;;;;;;;5084148;28;20441;-72
2021/03/01 05:04:04;;;;;;;31.73;23.83;;;;;;;;;;5091605;28;20408;-73
2021/03/01 05:06:30;;;;;;;31.33;23.05;;;;;;;;;;5087525;28;20451;-72
2021/03/01 05:08:56;;;;;;;33.00;24.17;;;;;;;;;;5076742;28;20372;-73
2021/03/01 05:11:30;;;;;;;35.47;25.13;;;;;;;;;;5075609;28;20891;-71
2021/03/01 05:13:56;;;;;;;33.50;23.35;;;;;;;;;;5076029;28;21208;-73
2021/03/01 05:16:24;;;;;;;31.48;23.25;;;;;;;;;;5069751;28;20392;-71
2021/03/01 05:18:50;;;;;;;31.10;23.42;;;;;;;;;;5070819;28;20884;-72
2021/03/01 05:21:16;;;;;;;31.63;22.37;;;;;;;;;;5071615;28;20516;-70
2021/03/01 05:23:42;;;;;;;33.50;23.52;;;;;;;;;;5089605;28;20427;-73
2021/03/01 05:26:08;;;;;;;34.35;24.10;;;;;;;;;;5090011;28;20672;-72
2021/03/01 05:28:36;;;;;;;34.10;24.20;;;;;;;;;;5077035;28;20698;-71
2021/03/01 05:31:01;;;;;;;35.00;23.92;;;;;;;;;;5071187;28;20463;-71
2021/03/01 05:33:27;;;;;;;34.38;24.02;;;;;;;;;;5078287;28;20494;-71
2021/03/01 05:35:53;;;;;;;35.60;24.02;;;;;;;;;;5069525;28;20375;-72
2021/03/01 05:38:19;;;;;;;37.33;25.55;;;;;;;;;;5072917;28;20384;-71
2021/03/01 05:40:47;;;;;;;34.20;23.97;;;;;;;;;;5088824;28;20390;-73
2021/03/01 05:43:13;;;;;;;40.63;25.80;;;;;;;;;;5088326;28;20471;-71
2021/03/01 05:45:40;;;;;;;38.87;26.40;;;;;;;;;;5089205;28;20748;-72
2021/03/01 05:48:10;;;;;;;42.60;27.83;;;;;;;;;;5083465;28;20402;-72
2021/03/01 05:50:41;;;;;;;43.22;28.05;;;;;;;;;;5088942;28;20436;-73
2021/03/01 05:53:09;;;;;;;40.90;26.20;;;;;;;;;;5076667;28;20502;-73
2021/03/01 05:55:35;;;;;;;41.88;27.05;;;;;;;;;;5070217;28;20396;-73
2021/03/01 05:58:01;;;;;;;44.85;27.48;;;;;;;;;;5070802;28;20436;-72
2021/03/01 06:00:28;;;;;;;41.15;25.95;;;;;;;;;;5075669;28;20404;-73
2021/03/01 06:02:56;;;;;;;43.72;26.15;;;;;;;;;;5069841;28;20397;-71
2021/03/01 06:05:23;;;;;;;42.03;25.60;;;;;;;;;;5073880;28;20490;-72
2021/03/01 06:07:49;;;;;;;43.40;26.10;;;;;;;;;;5078083;28;20419;-73
2021/03/01 06:10:15;;;;;;;45.97;26.30;;;;;;;;;;5090391;28;20376;-73
2021/03/01 06:12:41;;;;;;;42.22;25.50;;;;;;;;;;5083815;28;20445;-72
2021/03/01 06:15:09;;;;;;;44.50;25.65;;;;;;;;;;5069977;28;20364;-72
2021/03/01 06:17:35;;;;;;;42.25;23.58;;;;;;;;;;5076416;28;20409;-71
2021/03/01 06:20:01;;;;;;;46.20;25.75;;;;;;;;;;5089790;28;20447;-72
2021/03/01 06:22:29;;;;;;;40.63;25.13;;;;;;;;;;5073250;28;20473;-73
2021/03/01 06:25:03;;;;;;;40.20;22.65;;;;;;;;;;5089152;28;20992;-72
2021/03/01 06:27:29;;;;;;;38.42;23.10;;;;;;;;;;5084569;28;20732;-72
2021/03/01 06:30:06;;;;;;;43.03;23.50;;;;;;;;;;5089481;28;20367;-73
2021/03/01 06:32:32;;;;;;;44.00;23.88;;;;;;;;;;5080626;28;21281;-72
2021/03/01 06:34:58;;;;;;;38.60;22.35;;;;;;;;;;5069429;28;20371;-72
2021/03/01 06:37:24;;;;;;;37.85;22.13;;;;;;;;;;5077967;28;20391;-73
2021/03/01 06:39:51;;;;;;;35.70;21.15;;;;;;;;;;5069347;28;20418;-72
2021/03/01 06:42:17;;;;;;;36.13;20.70;;;;;;;;;;5069461;28;20379;-73
2021/03/01 06:44:43;;;;;;;33.55;19.70;;;;;;;;;;5087567;28;20417;-72
2021/03/01 06:47:10;;;;;;;36.15;18.90;;;;;;;;;;5083203;28;20400;-72
2021/03/01 06:49:38;;;;;;;33.13;19.00;;;;;;;;;;5086363;28;20451;-73
2021/03/01 06:52:04;;;;;;;34.33;19.95;;;;;;;;;;5089650;28;20416;-72
2021/03/01 06:54:30;;;;;;;36.33;20.45;;;;;;;;;;5084474;28;20448;-72
2021/03/01 06:56:56;;;;;;;36.25;20.25;;;;;;;;;;5069199;28;20386;-72
2021/03/01 06:59:23;;;;;;;32.95;19.00;;;;;;;;;;5076778;28;20390;-73
2021/03/01 07:01:50;;;;;;;34.80;20.08;;;;;;;;;;5088427;28;20359;-71
2021/03/01 07:04:19;;;;;;;34.70;20.10;;;;;;;;;;5086610;28;20509;-74
2021/03/01 07:06:46;;;;;;;37.15;20.25;;;;;;;;;;5086016;28;20419;-72
2021/03/01 07:09:13;;;;;;;35.58;19.15;;;;;;;;;;5067362;28;20491;-73
2021/03/01 07:11:39;;;;;;;36.30;19.97;;;;;;;;;;5073292;28;20380;-72
2021/03/01 07:14:05;;;;;;;34.45;19.80;;;;;;;;;;5077321;28;21091;-71
2021/03/01 07:16:35;;;;;;;34.47;18.80;;;;;;;;;;5074247;28;20394;-73
2021/03/01 07:19:01;;;;;;;36.13;19.13;;;;;;;;;;5068711;28;20406;-72
2021/03/01 07:21:27;;;;;;;43.10;21.08;;;;;;;;;;5074663;28;20831;-72
2021/03/01 07:23:53;;;;;;;38.75;20.17;;;;;;;;;;5088615;28;20459;-72
2021/03/01 07:26:24;;;;;;;36.53;19.63;;;;;;;;;;5082624;28;20690;-73
2021/03/01 07:28:51;;;;;;;39.45;20.63;;;;;;;;;;5074885;28;20378;-74
2021/03/01 07:31:18;;;;;;;38.13;21.00;;;;;;;;;;5081768;28;20731;-72
2021/03/01 07:33:45;;;;;;;34.63;19.40;;;;;;;;;;5087671;28;20461;-72
2021/03/01 07:36:11;;;;;;;38.45;19.73;;;;;;;;;;5075726;28;20416;-72
2021/03/01 07:38:37;;;;;;;38.20;19.75;;;;;;;;;;5068769;28;20876;-74
2021/03/01 07:41:04;;;;;;;39.65;20.50;;;;;;;;;;5068365;28;20955;-72
2021/03/01 07:43:31;;;;;;;35.33;19.73;;;;;;;;;;5088417;28;20405;-72
2021/03/01 07:45:57;;;;;;;38.03;19.77;;;;;;;;;;5077441;28;21080;-71
2021/03/01 07:48:23;;;;;;;38.22;19.27;;;;;;;;;;5068148;28;20395;-73
2021/03/01 07:50:49;;;;;;;33.63;17.90;;;;;;;;;;5078672;28;20382;-74
2021/03/01 07:53:35;;;;;;;34.03;19.10;;;;;;;;;;5087338;28;20394;-72
2021/03/01 07:56:20;;;;;;;36.95;19.25;;;;;;;;;;5085186;28;20476;-72
2021/03/01 07:58:59;;;;;;;36.80;19.23;;;;;;;;;;5067222;28;20392;-73
2021/03/01 08:01:25;;;;;;;36.72;19.38;;;;;;;;;;5079321;28;20409;-72
2021/03/01 08:03:52;;;;;;;35.73;19.37;;;;;;;;;;5073647;28;20498;-71
2021/03/01 08:06:19;;;;;;;36.60;19.35;;;;;;;;;;5066158;28;20486;-71
2021/03/01 08:08:48;;;;;;;39.58;20.88;;;;;;;;;;5087915;28;20727;-72
2021/03/01 08:11:15;;;;;;;36.40;19.40;;;;;;;;;;5086965;28;20382;-72
2021/03/01 08:13:41;;;;;;;35.03;19.40;;;;;;;;;;5086473;28;20405;-72
2021/03/01 08:16:23;;;;;;;36.00;19.95;;;;;;;;;;5084219;28;20402;-72
2021/03/01 08:18:51;;;;;;;39.90;20.02;;;;;;;;;;5067755;28;20441;-72
2021/03/01 08:21:17;;;;;;;36.80;19.00;;;;;;;;;;5085713;28;20358;-74
2021/03/01 08:23:44;;;;;;;32.00;18.52;;;;;;;;;;5084935;28;20421;-72
2021/03/01 08:26:10;;;;;;;36.75;19.30;;;;;;;;;;5086286;28;20386;-72
2021/03/01 08:28:37;;;;;;;38.30;19.07;;;;;;;;;;5085849;28;20423;-73
2021/03/01 08:31:09;;;;;;;32.15;18.63;;;;;;;;;;5088085;28;20709;-72
2021/03/01 08:33:35;;;;;;;33.15;18.40;;;;;;;;;;5073924;28;20398;-74
2021/03/01 08:36:01;;;;;;;35.15;17.58;;;;;;;;;;5070179;28;20400;-71
2021/03/01 08:38:46;;;;;;;32.30;17.80;;;;;;;;;;5067797;28;20402;-72
2021/03/01 08:41:13;;;;;;;30.42;17.60;;;;;;;;;;5067221;28;20372;-72
2021/03/01 08:43:41;;;;;;;31.52;17.65;;;;;;;;;;5072492;28;20425;-72
2021/03/01 08:46:08;;;;;;;33.45;18.00;;;;;;;;;;5076662;28;20468;-72
2021/03/01 08:48:39;;;;;;;35.10;17.93;;;;;;;;;;5079643;28;20455;-72
2021/03/01 08:51:05;;;;;;;31.73;17.27;;;;;;;;;;5082365;28;20477;-72
2021/03/01 08:53:31;;;;;;;31.95;17.15;;;;;;;;;;5084177;28;20395;-71
2021/03/01 08:55:59;;;;;;;28.27;16.50;;;;;;;;;;5066800;28;20364;-73
2021/03/01 08:58:30;;;;;;;29.45;16.45;;;;;;;;;;5067641;28;20379;-71
2021/03/01 09:00:59;;;;;;;34.05;16.58;;;;;;;;;;5074301;28;20419;-73
2021/03/01 09:03:36;;;;;;;28.90;15.23;;;;;;;;;;5076504;28;20411;-74
2021/03/01 09:06:12;;;;;;;29.85;17.10;;;;;;;;;;5085778;28;20385;-72
2021/03/01 09:08:38;;;;;;;30.90;15.70;;;;;;;;;;5090024;28;20470;-73
2021/03/01 09:11:05;;;;;;;29.17;16.02;;;;;;;;;;5089046;28;20454;-73
2021/03/01 09:13:34;;;;;;;30.00;16.02;;;;;;;;;;5092411;28;20376;-73
2021/03/01 09:16:04;;;;;;;30.52;16.13;;;;;;;;;;5094840;28;20461;-72
2021/03/01 09:18:30;;;;;;;29.05;15.38;;;;;;;;;;5097461;28;20376;-72
2021/03/01 09:20:57;;;;;;;31.93;16.73;;;;;;;;;;5094118;28;20543;-72
2021/03/01 09:23:43;;;;;;;31.65;16.25;;;;;;;;;;5093316;28;20418;-73
2021/03/01 09:26:17;;;;;;;30.77;16.63;;;;;;;;;;5076833;28;20394;-72
2021/03/01 09:28:43;;;;;;;33.78;17.30;;;;;;;;;;5076797;28;20741;-72
2021/03/01 09:31:11;;;;;;;31.73;17.05;;;;;;;;;;5078409;28;20449;-72
2021/03/01 09:33:38;;;;;;;31.08;16.48;;;;;;;;;;5082397;28;20461;-70
2021/03/01 09:36:05;;;;;;;32.35;17.35;;;;;;;;;;5083807;28;20378;-71
2021/03/01 09:38:32;;;;;;;32.13;16.08;;;;;;;;;;5079383;28;20394;-72
2021/03/01 09:41:08;;;;;;;31.80;15.98;;;;;;;;;;5077345;28;21176;-73
2021/03/01 09:43:34;;;;;;;33.00;17.13;;;;;;;;;;5083463;28;20425;-72
2021/03/01 09:46:01;;;;;;;35.92;17.65;;;;;;;;;;5079260;28;20855;-73
2021/03/01 09:48:28;;;;;;;34.45;17.35;;;;;;;;;;5089196;28;20427;-72
2021/03/01 09:50:54;;;;;;;33.10;16.42;;;;;;;;;;5089711;28;20412;-71
2021/03/01 09:53:20;;;;;;;31.87;16.97;;;;;;;;;;5083574;28;20857;-71
2021/03/01 09:55:51;;;;;;;32.03;16.75;;;;;;;;;;5080101;28;20511;-71
2021/03/01 09:58:27;;;;;;;31.65;16.10;;;;;;;;;;5088662;28;20860;-71
2021/03/01 10:00:53;;;;;;;32.42;16.42;;;;;;;;;;5089357;28;20359;-71
2021/03/01 10:03:19;;;;;;;34.45;16.60;;;;;;;;;;5083933;28;20406;-73
2021/03/01 10:05:49;;;;;;;32.05;16.33;;;;;;;;;;5078218;28;20387;-71
2021/03/01 10:08:25;;;;;;;34.72;17.17;;;;;;;;;;5089659;28;20566;-72
2021/03/01 10:10:52;;;;;;;36.40;17.05;;;;;;;;;;5074385;28;20394;-72
2021/03/01 10:13:32;;;;;;;33.80;16.33;;;;;;;;;;5087264;28;20447;-73
2021/03/01 10:15:58;;;;;;;31.92;16.13;;;;;;;;;;5085850;28;20370;-72
2021/03/01 10:18:26;;;;;;;33.93;17.07;;;;;;;;;;5083732;28;20473;-78
2021/03/01 10:20:54;;;;;;;33.87;17.13;;;;;;;;;;5068398;28;20395;-77
2021/03/01 10:23:34;;;;;;;31.42;15.40;;;;;;;;;;5069691;28;20411;-76
2021/03/01 10:26:15;;;;;;;33.35;17.13;;;;;;;;;;5071322;28;20445;-76
2021/03/01 10:28:42;;;;;;;34.53;16.98;;;;;;;;;;5081947;28;20409;-76
2021/03/01 10:31:13;;;;;;;35.25;17.33;;;;;;;;;;5080074;28;20406;-76
2021/03/01 10:33:58;;;;;;;33.90;16.70;;;;;;;;;;5081741;28;20439;-77
2021/03/01 10:36:25;;;;;;;33.80;17.13;;;;;;;;;;5084372;28;20447;-77
2021/03/01 10:38:56;;;;;;;35.22;17.45;;;;;;;;;;5075267;28;21058;-73
2021/03/01 10:41:24;;;;;;;33.33;16.92;;;;;;;;;;5068517;28;20480;-72
2021/03/01 10:43:50;;;;;;;33.67;16.60;;;;;;;;;;5086427;28;20414;-76
2021/03/01 10:46:33;;;;;;;36.00;17.43;;;;;;;;;;5085352;28;20405;-79
2021/03/01 10:49:00;;;;;;;39.50;17.53;;;;;;;;;;5083250;28;20732;-72
2021/03/01 10:51:26;;;;;;;34.88;17.45;;;;;;;;;;5080682;28;20386;-72
2021/03/01 10:53:53;;;;;;;40.28;18.33;;;;;;;;;;5070187;28;20849;-73
2021/03/01 10:56:20;;;;;;;34.85;17.40;;;;;;;;;;5075917;28;20406;-74
2021/03/01 10:58:46;;;;;;;34.93;16.93;;;;;;;;;;5073066;28;20536;-74
2021/03/01 11:01:12;;;;;;;34.75;17.83;;;;;;;;;;5076924;28;20406;-74
2021/03/01 11:03:38;;;;;;;35.30;17.23;;;;;;;;;;5073279;28;20489;-74
2021/03/01 11:06:04;;;;;;;33.55;17.45;;;;;;;;;;5093521;28;20461;-74
2021/03/01 11:08:30;;;;;;;36.92;18.05;;;;;;;;;;5090621;28;20386;-73
2021/03/01 11:10:56;;;;;;;35.73;16.43;;;;;;;;;;5090972;28;20374;-75
2021/03/01 11:13:22;;;;;;;36.00;17.60;;;;;;;;;;5095889;28;20412;-74
2021/03/01 11:15:48;;;;;;;33.42;17.15;;;;;;;;;;5089238;28;20395;-75
2021/03/01 11:18:14;;;;;;;35.42;17.40;;;;;;;;;;5085646;28;20370;-73
2021/03/01 11:20:40;;;;;;;34.35;17.73;;;;;;;;;;5095460;28;20371;-73
2021/03/01 11:23:06;;;;;;;32.80;16.42;;;;;;;;;;5092557;28;20475;-73
2021/03/01 11:25:34;;;;;;;33.40;16.92;;;;;;;;;;5085421;28;20473;-72
2021/03/01 11:28:00;;;;;;;34.47;17.55;;;;;;;;;;5079715;28;20877;-73
2021/03/01 11:30:27;;;;;;;32.08;16.58;;;;;;;;;;5092466;28;20473;-74
2021/03/01 11:32:52;;;;;;;32.33;15.97;;;;;;;;;;5092711;28;20917;-74
2021/03/01 11:35:18;;;;;;;31.88;16.02;;;;;;;;;;5088636;28;20475;-73
2021/03/01 11:37:44;;;;;;;29.08;14.80;;;;;;;;;;5078960;28;20743;-74
2021/03/01 11:40:11;;;;;;;31.05;15.23;;;;;;;;;;5078133;28;20705;-75
2021/03/01 11:42:37;;;;;;;30.58;15.52;;;;;;;;;;5072045;28;20394;-72
2021/03/01 11:45:04;;;;;;;31.48;15.38;;;;;;;;;;5074029;28;20421;-71
2021/03/01 11:47:31;;;;;;;27.90;14.30;;;;;;;;;;5076550;28;20875;-73
2021/03/01 11:49:57;;;;;;;28.00;15.00;;;;;;;;;;5086833;28;20390;-73
2021/03/01 11:52:23;;;;;;;27.65;14.98;;;;;;;;;;5077005;28;20434;-72
2021/03/01 11:54:49;;;;;;;27.40;14.10;;;;;;;;;;5077243;28;20521;-72
2021/03/01 11:57:15;;;;;;;28.20;13.98;;;;;;;;;;5080959;28;20398;-72
2021/03/01 11:59:41;;;;;;;25.77;13.33;;;;;;;;;;5066771;28;20392;-72
2021/03/01 12:02:07;;;;;;;25.70;13.02;;;;;;;;;;5074977;28;20375;-72
2021/03/01 12:04:33;;;;;;;23.15;12.48;;;;;;;;;;5088915;28;20439;-73
2021/03/01 12:06:59;;;;;;;25.85;13.40;;;;;;;;;;5074451;28;21475;-72
2021/03/01 12:09:25;;;;;;;26.07;13.13;;;;;;;;;;5066073;28;21005;-73
2021/03/01 12:11:51;;;;;;;25.67;12.95;;;;;;;;;;5071472;28;20865;-74
2021/03/01 12:14:16;;;;;;;24.55;12.52;;;;;;;;;;5069779;28;20896;-73
2021/03/01 12:16:42;;;;;;;23.57;12.17;;;;;;;;;;5066925;28;20407;-73
2021/03/01 12:19:08;;;;;;;22.35;12.57;;;;;;;;;;5079631;28;20412;-73
2021/03/01 12:21:34;;;;;;;22.70;12.90;;;;;;;;;;5072211;28;20424;-72
2021/03/01 12:24:00;;;;;;;21.50;11.65;;;;;;;;;;5075709;28;20486;-74
2021/03/01 12:26:26;;;;;;;21.33;11.90;;;;;;;;;;5081547;28;20389;-72
2021/03/01 12:28:52;;;;;;;22.65;11.95;;;;;;;;;;5080488;28;20385;-73
2021/03/01 12:31:18;;;;;;;19.85;10.65;;;;;;;;;;5079677;28;20441;-73
2021/03/01 12:33:44;;;;;;;21.10;10.98;;;;;;;;;;5075762;28;20873;-73
2021/03/01 12:36:10;;;;;;;23.17;11.03;;;;;;;;;;5073373;28;20417;-74
2021/03/01 12:38:36;;;;;;;20.70;11.20;;;;;;;;;;5070364;28;20397;-74
2021/03/01 12:41:02;;;;;;;19.88;10.55;;;;;;;;;;5080076;28;20388;-71
2021/03/01 12:43:28;;;;;;;19.60;10.98;;;;;;;;;;5075541;28;20422;-73
2021/03/01 12:45:54;;;;;;;19.88;10.23;;;;;;;;;;5065847;28;20506;-73
2021/03/01 12:48:20;;;;;;;18.88;10.60;;;;;;;;;;5071735;28;20403;-74
2021/03/01 12:50:46;;;;;;;22.05;11.55;;;;;;;;;;5075712;28;20401;-72
2021/03/01 12:53:12;;;;;;;21.58;11.00;;;;;;;;;;5069099;28;20431;-73
2021/03/01 12:55:38;;;;;;;21.25;10.73;;;;;;;;;;5099340;28;20528;-72
2021/03/01 12:58:04;;;;;;;21.58;11.63;;;;;;;;;;5081025;28;20390;-73
2021/03/01 13:00:30;;;;;;;23.13;12.03;;;;;;;;;;5075966;28;20396;-73
2021/03/01 13:02:56;;;;;;;23.83;11.07;;;;;;;;;;5073339;28;20482;-74
2021/03/01 13:05:22;;;;;;;21.97;11.60;;;;;;;;;;5088882;28;20424;-73
2021/03/01 13:07:48;;;;;;;20.70;10.90;;;;;;;;;;5086801;28;20398;-74
2021/03/01 13:10:14;;;;;;;18.48;9.93;;;;;;;;;;5089832;28;20469;-73
2021/03/01 13:12:42;;;;;;;21.23;10.53;;;;;;;;;;5078858;28;20465;-73
2021/03/01 13:15:08;;;;;;;21.77;11.07;;;;;;;;;;5087754;28;20401;-72
2021/03/01 13:17:34;;;;;;;22.08;10.27;;;;;;;;;;5090901;28;20449;-74
2021/03/01 13:20:00;;;;;;;18.08;10.15;;;;;;;;;;5089684;28;20366;-73
2021/03/01 13:22:26;;;;;;;20.33;10.10;;;;;;;;;;5083055;28;20767;-74
2021/03/01 13:24:52;;;;;;;18.85;10.02;;;;;;;;;;5087947;28;20441;-72
2021/03/01 13:27:18;;;;;;;20.40;10.88;;;;;;;;;;5086066;28;20385;-74
2021/03/01 13:29:45;;;;;;;21.35;10.80;;;;;;;;;;5082418;28;20412;-74
2021/03/01 13:32:11;;;;;;;22.70;10.87;;;;;;;;;;5081621;28;20465;-72
2021/03/01 13:34:37;;;;;;;18.13;9.80;;;;;;;;;;5090209;28;20450;-73
2021/03/01 13:37:03;;;;;;;20.05;10.15;;;;;;;;;;5088952;28;20775;-72
2021/03/01 13:39:31;;;;;;;21.87;11.30;;;;;;;;;;5090210;28;20937;-72
2021/03/01 13:41:57;;;;;;;20.70;10.52;;;;;;;;;;5085958;28;20394;-73
2021/03/01 13:44:23;;;;;;;17.97;10.73;;;;;;;;;;5087283;28;20410;-73
2021/03/01 13:46:49;;;;;;;19.02;10.18;;;;;;;;;;5081028;28;20394;-72
2021/03/01 13:49:15;;;;;;;21.70;10.77;;;;;;;;;;5082859;28;20380;-73
2021/03/01 13:51:41;;;;;;;20.88;10.90;;;;;;;;;;5082154;28;20369;-73
2021/03/01 13:54:07;;;;;;;20.20;10.73;;;;;;;;;;5084739;28;21102;-73
2021/03/01 13:56:33;;;;;;;20.23;10.45;;;;;;;;;;5089260;28;20393;-72
2021/03/01 13:58:59;;;;;;;20.40;10.50;;;;;;;;;;5087200;28;20392;-72
2021/03/01 14:01:25;;;;;;;22.20;11.18;;;;;;;;;;5087295;28;20382;-73
2021/03/01 14:03:51;;;;;;;21.30;10.97;;;;;;;;;;5086470;28;20408;-74
2021/03/01 14:06:16;;;;;;;19.15;10.35;;;;;;;;;;5087310;28;20367;-75
2021/03/01 14:08:43;;;;;;;22.83;10.93;;;;;;;;;;5085498;28;20374;-74
2021/03/01 14:11:09;;;;;;;22.65;10.45;;;;;;;;;;5079785;28;20526;-75
2021/03/01 14:13:35;;;;;;;21.38;10.95;;;;;;;;;;5088093;28;21116;-74
2021/03/01 14:16:01;;;;;;;20.37;10.67;;;;;;;;;;5078165;28;20387;-74
2021/03/01 14:18:27;;;;;;;18.92;10.20;;;;;;;;;;5089242;28;20410;-73